sensor_id;sensor_type;location;lat;lon;timestamp;pressure;altitude;pressure_sealevel;temperature;humidity
8501;BME280;4288;48.484;10.024;2022-11-18T00:01:55;93872.69;;;16.34;76.24
8501;BME280;4288;48.484;10.024;2022-11-18T00:04:22;93870.72;;;16.35;76.18
8501;BME280;4288;48.484;10.024;2022-11-18T00:06:49;93867.28;;;16.34;76.31
8501;BME280;4288;48.484;10.024;2022-11-18T00:09:16;93859.19;;;16.34;76.18
8501;BME280;4288;48.484;10.024;2022-11-18T00:11:44;93863.84;;;16.34;76.38
8501;BME280;4288;48.484;10.024;2022-11-18T00:14:29;93856.50;;;16.34;76.24
8501;BME280;4288;48.484;10.024;2022-11-18T00:16:58;93857.69;;;16.33;76.21
8501;BME280;4288;48.484;10.024;2022-11-18T00:19:28;93850.38;;;16.34;76.22
8501;BME280;4288;48.484;10.024;2022-11-18T00:21:56;93844.69;;;16.32;76.24
8501;BME280;4288;48.484;10.024;2022-11-18T00:24:24;93844.69;;;16.32;76.26
8501;BME280;4288;48.484;10.024;2022-11-18T00:26:54;93849.59;;;16.33;76.30
8501;BME280;4288;48.484;10.024;2022-11-18T00:29:22;93846.16;;;16.33;76.31
8501;BME280;4288;48.484;10.024;2022-11-18T00:31:51;93851.13;;;16.34;76.42
8501;BME280;4288;48.484;10.024;2022-11-18T00:34:18;93850.38;;;16.34;76.32
8501;BME280;4288;48.484;10.024;2022-11-18T00:36:46;93849.59;;;16.33;76.38
8501;BME280;4288;48.484;10.024;2022-11-18T00:39:16;93854.25;;;16.33;76.12
8501;BME280;4288;48.484;10.024;2022-11-18T00:41:43;93854.25;;;16.33;76.39
8501;BME280;4288;48.484;10.024;2022-11-18T00:44:30;93849.31;;;16.31;76.15
8501;BME280;4288;48.484;10.024;2022-11-18T00:46:57;93847.38;;;16.32;76.20
8501;BME280;4288;48.484;10.024;2022-11-18T00:49:24;93851.56;;;16.33;76.22
8501;BME280;4288;48.484;10.024;2022-11-18T00:51:51;93848.13;;;16.32;76.31
8501;BME280;4288;48.484;10.024;2022-11-18T00:54:19;93850.81;;;16.32;76.15
8501;BME280;4288;48.484;10.024;2022-11-18T00:56:46;93844.69;;;16.32;76.01
8501;BME280;4288;48.484;10.024;2022-11-18T00:59:13;93837.78;;;16.31;76.07
8501;BME280;4288;48.484;10.024;2022-11-18T01:01:41;93843.94;;;16.31;76.28
8501;BME280;4288;48.484;10.024;2022-11-18T01:04:08;93845.16;;;16.30;76.17
8501;BME280;4288;48.484;10.024;2022-11-18T01:06:36;93844.38;;;16.30;76.17
8501;BME280;4288;48.484;10.024;2022-11-18T01:09:03;93845.88;;;16.31;76.20
8501;BME280;4288;48.484;10.024;2022-11-18T01:11:30;93843.19;;;16.31;76.14
8501;BME280;4288;48.484;10.024;2022-11-18T01:14:15;93844.38;;;16.30;76.04
8501;BME280;4288;48.484;10.024;2022-11-18T01:16:44;93845.56;;;16.29;76.10
8501;BME280;4288;48.484;10.024;2022-11-18T01:19:16;93837.06;;;16.30;75.94
8501;BME280;4288;48.484;10.024;2022-11-18T01:21:43;93850.53;;;16.30;75.94
8501;BME280;4288;48.484;10.024;2022-11-18T01:24:10;93845.56;;;16.29;76.24
8501;BME280;4288;48.484;10.024;2022-11-18T01:26:37;93841.69;;;16.30;76.06
8501;BME280;4288;48.484;10.024;2022-11-18T01:29:04;93844.38;;;16.30;76.11
8501;BME280;4288;48.484;10.024;2022-11-18T01:31:31;93836.31;;;16.30;76.00
8501;BME280;4288;48.484;10.024;2022-11-18T01:34:00;93837.50;;;16.29;76.02
8501;BME280;4288;48.484;10.024;2022-11-18T01:36:27;93835.53;;;16.29;76.07
8501;BME280;4288;48.484;10.024;2022-11-18T01:38:55;93836.47;;;16.26;76.09
8501;BME280;4288;48.484;10.024;2022-11-18T01:41:25;93835.53;;;16.29;75.93
8501;BME280;4288;48.484;10.024;2022-11-18T01:43:55;93836.47;;;16.26;75.99
8501;BME280;4288;48.484;10.024;2022-11-18T01:46:25;93842.59;;;16.27;76.18
8501;BME280;4288;48.484;10.024;2022-11-18T01:48:57;93841.41;;;16.28;76.02
8501;BME280;4288;48.484;10.024;2022-11-18T01:51:30;93840.19;;;16.29;75.98
8501;BME280;4288;48.484;10.024;2022-11-18T01:54:04;93841.41;;;16.28;76.08
8501;BME280;4288;48.484;10.024;2022-11-18T01:56:38;93842.16;;;16.28;76.17
8501;BME280;4288;48.484;10.024;2022-11-18T01:59:12;93834.25;;;16.25;75.98
8501;BME280;4288;48.484;10.024;2022-11-18T02:01:41;93840.66;;;16.27;76.09
8501;BME280;4288;48.484;10.024;2022-11-18T02:04:08;93839.91;;;16.27;76.13
8501;BME280;4288;48.484;10.024;2022-11-18T02:06:38;93841.41;;;16.28;75.81
8501;BME280;4288;48.484;10.024;2022-11-18T02:09:06;93840.66;;;16.27;75.89
8501;BME280;4288;48.484;10.024;2022-11-18T02:11:33;93840.34;;;16.25;76.04
8501;BME280;4288;48.484;10.024;2022-11-18T02:14:21;93834.69;;;16.23;75.89
8501;BME280;4288;48.484;10.024;2022-11-18T02:17:03;93825.41;;;16.24;76.10
8501;BME280;4288;48.484;10.024;2022-11-18T02:20:17;93829.13;;;16.27;76.09
8501;BME280;4288;48.484;10.024;2022-11-18T02:23:25;93829.13;;;16.27;75.96
8501;BME280;4288;48.484;10.024;2022-11-18T02:27:01;93817.31;;;16.24;75.69
8501;BME280;4288;48.484;10.024;2022-11-18T02:29:43;93828.56;;;16.23;75.85
8501;BME280;4288;48.484;10.024;2022-11-18T02:32:14;93833.47;;;16.24;75.85
8501;BME280;4288;48.484;10.024;2022-11-18T02:34:48;93832.72;;;16.24;75.77
8501;BME280;4288;48.484;10.024;2022-11-18T02:37:24;93830.03;;;16.24;75.94
8501;BME280;4288;48.484;10.024;2022-11-18T02:39:57;93836.66;;;16.23;75.92
8501;BME280;4288;48.484;10.024;2022-11-18T02:42:26;93828.56;;;16.23;75.87
8501;BME280;4288;48.484;10.024;2022-11-18T02:45:01;93820.47;;;16.23;75.81
8501;BME280;4288;48.484;10.024;2022-11-18T02:47:32;93827.34;;;16.24;75.69
8501;BME280;4288;48.484;10.024;2022-11-18T02:50:04;93826.59;;;16.23;75.81
8501;BME280;4288;48.484;10.024;2022-11-18T02:52:34;93821.66;;;16.22;75.70
8501;BME280;4288;48.484;10.024;2022-11-18T02:55:07;93823.16;;;16.23;75.76
8501;BME280;4288;48.484;10.024;2022-11-18T02:57:35;93816.72;;;16.20;75.76
8501;BME280;4288;48.484;10.024;2022-11-18T03:00:06;93820.47;;;16.23;75.73
8501;BME280;4288;48.484;10.024;2022-11-18T03:02:41;93819.72;;;16.22;75.88
8501;BME280;4288;48.484;10.024;2022-11-18T03:05:26;93814.03;;;16.20;75.47
8501;BME280;4288;48.484;10.024;2022-11-18T03:08:02;93819.72;;;16.22;75.54
8501;BME280;4288;48.484;10.024;2022-11-18T03:10:39;93817.78;;;16.23;75.73
8501;BME280;4288;48.484;10.024;2022-11-18T03:13:14;93819.72;;;16.22;75.72
8501;BME280;4288;48.484;10.024;2022-11-18T03:15:53;93821.66;;;16.22;75.67
8501;BME280;4288;48.484;10.024;2022-11-18T03:18:29;93812.09;;;16.21;75.84
8501;BME280;4288;48.484;10.024;2022-11-18T03:21:04;93820.91;;;16.21;75.60
8501;BME280;4288;48.484;10.024;2022-11-18T03:23:39;93821.66;;;16.22;75.59
8501;BME280;4288;48.484;10.024;2022-11-18T03:26:11;93825.56;;;16.21;75.71
8501;BME280;4288;48.484;10.024;2022-11-18T03:28:45;93824.81;;;16.20;75.81
8501;BME280;4288;48.484;10.024;2022-11-18T03:31:24;93823.78;;;16.18;75.72
8501;BME280;4288;48.484;10.024;2022-11-18T03:33:58;93833.66;;;16.21;75.94
8501;BME280;4288;48.484;10.024;2022-11-18T03:36:32;93832.44;;;16.22;76.02
8501;BME280;4288;48.484;10.024;2022-11-18T03:39:03;93837.06;;;16.21;76.08
8501;BME280;4288;48.484;10.024;2022-11-18T03:41:36;93841.00;;;16.20;76.09
8501;BME280;4288;48.484;10.024;2022-11-18T03:44:08;93841.44;;;16.19;76.01
8501;BME280;4288;48.484;10.024;2022-11-18T03:46:41;93844.44;;;16.21;76.23
8501;BME280;4288;48.484;10.024;2022-11-18T03:49:15;93847.84;;;16.21;76.08
8501;BME280;4288;48.484;10.024;2022-11-18T03:51:46;93840.22;;;16.20;76.00
8501;BME280;4288;48.484;10.024;2022-11-18T03:54:21;93845.16;;;16.21;76.15
8501;BME280;4288;48.484;10.024;2022-11-18T03:56:57;93848.78;;;16.18;76.08
8501;BME280;4288;48.484;10.024;2022-11-18T03:59:30;93854.75;;;16.22;76.09
8501;BME280;4288;48.484;10.024;2022-11-18T04:02:04;93865.53;;;16.22;75.96
8501;BME280;4288;48.484;10.024;2022-11-18T04:04:32;93872.88;;;16.22;76.05
8501;BME280;4288;48.484;10.024;2022-11-18T04:07:06;93870.94;;;16.22;76.07
8501;BME280;4288;48.484;10.024;2022-11-18T04:09:40;93868.69;;;16.21;76.51
8501;BME280;4288;48.484;10.024;2022-11-18T04:12:13;93877.06;;;16.23;76.23
8501;BME280;4288;48.484;10.024;2022-11-18T04:14:43;93884.88;;;16.21;76.27
8501;BME280;4288;48.484;10.024;2022-11-18T04:17:16;93893.97;;;16.23;76.14
8501;BME280;4288;48.484;10.024;2022-11-18T04:19:44;93888.75;;;16.20;76.44
8501;BME280;4288;48.484;10.024;2022-11-18T04:22:12;93887.09;;;16.22;76.59
8501;BME280;4288;48.484;10.024;2022-11-18T04:24:39;93896.69;;;16.23;76.35
8501;BME280;4288;48.484;10.024;2022-11-18T04:27:07;93899.38;;;16.23;76.41
8501;BME280;4288;48.484;10.024;2022-11-18T04:29:34;93905.97;;;16.22;76.56
8501;BME280;4288;48.484;10.024;2022-11-18T04:32:04;93910.63;;;16.22;76.50
8501;BME280;4288;48.484;10.024;2022-11-18T04:34:33;93906.72;;;16.23;76.57
8501;BME280;4288;48.484;10.024;2022-11-18T04:37:00;93911.81;;;16.21;76.72
8501;BME280;4288;48.484;10.024;2022-11-18T04:39:28;93910.16;;;16.23;76.63
8501;BME280;4288;48.484;10.024;2022-11-18T04:41:55;93916.28;;;16.24;76.65
8501;BME280;4288;48.484;10.024;2022-11-18T04:44:24;93915.53;;;16.23;76.52
8501;BME280;4288;48.484;10.024;2022-11-18T04:46:52;93915.53;;;16.23;76.84
8501;BME280;4288;48.484;10.024;2022-11-18T04:49:20;93919.75;;;16.24;76.80
8501;BME280;4288;48.484;10.024;2022-11-18T04:51:49;93915.53;;;16.23;76.52
8501;BME280;4288;48.484;10.024;2022-11-18T04:54:17;93933.69;;;16.23;76.74
8501;BME280;4288;48.484;10.024;2022-11-18T04:56:45;93937.88;;;16.24;76.65
8501;BME280;4288;48.484;10.024;2022-11-18T04:59:14;93925.59;;;16.23;76.66
8501;BME280;4288;48.484;10.024;2022-11-18T05:01:42;93929.78;;;16.24;76.92
8501;BME280;4288;48.484;10.024;2022-11-18T05:04:13;93925.88;;;16.25;76.77
8501;BME280;4288;48.484;10.024;2022-11-18T05:06:40;93941.31;;;16.24;76.84
8501;BME280;4288;48.484;10.024;2022-11-18T05:09:09;93940.56;;;16.24;76.78
8501;BME280;4288;48.484;10.024;2022-11-18T05:11:37;93943.25;;;16.24;77.14
8501;BME280;4288;48.484;10.024;2022-11-18T05:14:24;93940.56;;;16.24;76.82
8501;BME280;4288;48.484;10.024;2022-11-18T05:16:51;93929.78;;;16.24;77.07
8501;BME280;4288;48.484;10.024;2022-11-18T05:19:19;93944.00;;;16.24;77.12
8501;BME280;4288;48.484;10.024;2022-11-18T05:21:46;93952.84;;;16.25;76.93
8501;BME280;4288;48.484;10.024;2022-11-18T05:24:15;93957.78;;;16.26;76.96
8501;BME280;4288;48.484;10.024;2022-11-18T05:26:42;93966.31;;;16.25;77.49
8501;BME280;4288;48.484;10.024;2022-11-18T05:29:10;93971.25;;;16.26;77.31
8501;BME280;4288;48.484;10.024;2022-11-18T05:31:37;93973.19;;;16.26;77.29
8501;BME280;4288;48.484;10.024;2022-11-18T05:34:06;93979.81;;;16.25;77.25
8501;BME280;4288;48.484;10.024;2022-11-18T05:36:33;93986.69;;;16.26;77.04
8501;BME280;4288;48.484;10.024;2022-11-18T05:39:00;93990.13;;;16.26;77.49
8501;BME280;4288;48.484;10.024;2022-11-18T05:41:29;93980.53;;;16.25;77.52
8501;BME280;4288;48.484;10.024;2022-11-18T05:44:14;93996.72;;;16.25;77.27
8501;BME280;4288;48.484;10.024;2022-11-18T05:46:41;94012.16;;;16.25;77.45
8501;BME280;4288;48.484;10.024;2022-11-18T05:49:09;94009.00;;;16.26;77.50
8501;BME280;4288;48.484;10.024;2022-11-18T05:51:36;94017.09;;;16.26;77.57
8501;BME280;4288;48.484;10.024;2022-11-18T05:54:07;94019.78;;;16.26;77.36
8501;BME280;4288;48.484;10.024;2022-11-18T05:56:39;94015.28;;;16.23;77.79
8501;BME280;4288;48.484;10.024;2022-11-18T05:59:06;94017.09;;;16.26;77.49
8501;BME280;4288;48.484;10.024;2022-11-18T06:01:43;94025.91;;;16.27;77.51
8501;BME280;4288;48.484;10.024;2022-11-18T06:04:16;94029.34;;;16.27;77.64
8501;BME280;4288;48.484;10.024;2022-11-18T06:06:45;94027.88;;;16.26;77.78
8501;BME280;4288;48.484;10.024;2022-11-18T06:09:17;94027.88;;;16.26;77.70
8501;BME280;4288;48.484;10.024;2022-11-18T06:11:51;94031.28;;;16.27;77.65
8501;BME280;4288;48.484;10.024;2022-11-18T06:14:21;94041.34;;;16.26;77.70
8501;BME280;4288;48.484;10.024;2022-11-18T06:16:53;94040.31;;;16.24;77.70
8501;BME280;4288;48.484;10.024;2022-11-18T06:19:22;94045.53;;;16.27;77.72
8501;BME280;4288;48.484;10.024;2022-11-18T06:21:49;94047.47;;;16.27;77.79
8501;BME280;4288;48.484;10.024;2022-11-18T06:24:17;94062.91;;;16.26;77.75
8501;BME280;4288;48.484;10.024;2022-11-18T06:26:45;94066.34;;;16.27;77.73
8501;BME280;4288;48.484;10.024;2022-11-18T06:29:16;94065.31;;;16.24;78.01
8501;BME280;4288;48.484;10.024;2022-11-18T06:31:44;94074.44;;;16.27;77.89
8501;BME280;4288;48.484;10.024;2022-11-18T06:34:11;94077.13;;;16.27;77.85
8501;BME280;4288;48.484;10.024;2022-11-18T06:36:38;94085.22;;;16.27;77.80
8501;BME280;4288;48.484;10.024;2022-11-18T06:39:06;94094.06;;;16.27;78.03
8501;BME280;4288;48.484;10.024;2022-11-18T06:41:33;94085.22;;;16.27;77.85
8501;BME280;4288;48.484;10.024;2022-11-18T06:44:01;94095.56;;;16.28;78.05
8501;BME280;4288;48.484;10.024;2022-11-18T06:46:28;94097.06;;;16.29;77.92
8501;BME280;4288;48.484;10.024;2022-11-18T06:49:22;94104.38;;;16.29;78.01
8501;BME280;4288;48.484;10.024;2022-11-18T06:51:49;94100.22;;;16.28;78.17
8501;BME280;4288;48.484;10.024;2022-11-18T06:54:16;94107.06;;;16.29;77.99
8501;BME280;4288;48.484;10.024;2022-11-18T06:56:44;94116.69;;;16.30;77.96
8501;BME280;4288;48.484;10.024;2022-11-18T06:59:11;94115.16;;;16.29;77.97
8501;BME280;4288;48.484;10.024;2022-11-18T07:01:40;94121.31;;;16.29;77.96
8501;BME280;4288;48.484;10.024;2022-11-18T07:04:07;94116.69;;;16.30;77.79
8501;BME280;4288;48.484;10.024;2022-11-18T07:06:35;94126.72;;;16.29;77.99
8501;BME280;4288;48.484;10.024;2022-11-18T07:09:05;94123.56;;;16.31;77.88
8501;BME280;4288;48.484;10.024;2022-11-18T07:11:33;94129.72;;;16.31;78.10
8501;BME280;4288;48.484;10.024;2022-11-18T07:14:00;94126.25;;;16.31;77.91
8501;BME280;4288;48.484;10.024;2022-11-18T07:16:28;94134.34;;;16.31;78.04
8501;BME280;4288;48.484;10.024;2022-11-18T07:18:56;94137.78;;;16.31;78.16
8501;BME280;4288;48.484;10.024;2022-11-18T07:21:26;94137.50;;;16.29;78.27
8501;BME280;4288;48.484;10.024;2022-11-18T07:23:54;94137.78;;;16.31;78.08
8501;BME280;4288;48.484;10.024;2022-11-18T07:26:22;94145.88;;;16.31;78.16
8501;BME280;4288;48.484;10.024;2022-11-18T07:28:49;94139.72;;;16.31;78.16
8501;BME280;4288;48.484;10.024;2022-11-18T07:31:18;94143.94;;;16.32;78.23
8501;BME280;4288;48.484;10.024;2022-11-18T07:33:46;94150.09;;;16.32;78.03
8501;BME280;4288;48.484;10.024;2022-11-18T07:36:18;94155.47;;;16.32;78.37
8501;BME280;4288;48.484;10.024;2022-11-18T07:38:46;94146.34;;;16.30;78.13
8501;BME280;4288;48.484;10.024;2022-11-18T07:41:15;94160.13;;;16.32;78.08
8501;BME280;4288;48.484;10.024;2022-11-18T07:43:44;94158.59;;;16.31;78.17
8501;BME280;4288;48.484;10.024;2022-11-18T07:46:13;94170.16;;;16.31;78.05
8501;BME280;4288;48.484;10.024;2022-11-18T07:48:42;94157.88;;;16.30;77.91
8501;BME280;4288;48.484;10.024;2022-11-18T07:51:10;94164.75;;;16.31;77.84
8501;BME280;4288;48.484;10.024;2022-11-18T07:53:39;94169.69;;;16.33;78.03
8501;BME280;4288;48.484;10.024;2022-11-18T07:56:07;94165.06;;;16.33;78.27
8501;BME280;4288;48.484;10.024;2022-11-18T07:58:36;94167.75;;;16.33;78.09
8501;BME280;4288;48.484;10.024;2022-11-18T08:01:07;94170.44;;;16.33;78.01
8501;BME280;4288;48.484;10.024;2022-11-18T08:03:35;94167.75;;;16.33;78.07
8501;BME280;4288;48.484;10.024;2022-11-18T08:06:03;94162.81;;;16.32;78.09
8501;BME280;4288;48.484;10.024;2022-11-18T08:08:31;94175.84;;;16.33;78.15
8501;BME280;4288;48.484;10.024;2022-11-18T08:11:02;94173.91;;;16.34;78.09
8501;BME280;4288;48.484;10.024;2022-11-18T08:13:31;94172.38;;;16.33;77.95
8501;BME280;4288;48.484;10.024;2022-11-18T08:15:58;94177.34;;;16.34;78.15
8501;BME280;4288;48.484;10.024;2022-11-18T08:18:27;94177.34;;;16.34;77.94
8501;BME280;4288;48.484;10.024;2022-11-18T08:20:54;94173.91;;;16.34;77.86
8501;BME280;4288;48.484;10.024;2022-11-18T08:23:22;94173.91;;;16.34;77.86
8501;BME280;4288;48.484;10.024;2022-11-18T08:25:49;94170.75;;;16.35;77.79
8501;BME280;4288;48.484;10.024;2022-11-18T08:28:18;94180.78;;;16.35;77.70
8501;BME280;4288;48.484;10.024;2022-11-18T08:30:45;94180.78;;;16.35;77.73
8501;BME280;4288;48.484;10.024;2022-11-18T08:33:12;94188.88;;;16.35;77.80
8501;BME280;4288;48.484;10.024;2022-11-18T08:35:39;94182.28;;;16.36;77.73
8501;BME280;4288;48.484;10.024;2022-11-18T08:38:06;94181.53;;;16.35;77.85
8501;BME280;4288;48.484;10.024;2022-11-18T08:40:33;94186.16;;;16.35;77.69
8501;BME280;4288;48.484;10.024;2022-11-18T08:43:00;94183.47;;;16.35;77.59
8501;BME280;4288;48.484;10.024;2022-11-18T08:45:29;94186.16;;;16.35;77.66
8501;BME280;4288;48.484;10.024;2022-11-18T08:47:56;94193.53;;;16.34;77.90
8501;BME280;4288;48.484;10.024;2022-11-18T08:50:23;94192.31;;;16.35;77.77
8501;BME280;4288;48.484;10.024;2022-11-18T08:52:50;94189.63;;;16.35;77.64
8501;BME280;4288;48.484;10.024;2022-11-18T08:55:17;94186.16;;;16.35;77.75
8501;BME280;4288;48.484;10.024;2022-11-18T08:57:45;94188.88;;;16.35;77.54
8501;BME280;4288;48.484;10.024;2022-11-18T09:00:13;94188.88;;;16.35;77.50
8501;BME280;4288;48.484;10.024;2022-11-18T09:02:42;94191.56;;;16.35;77.50
8501;BME280;4288;48.484;10.024;2022-11-18T09:05:09;94189.63;;;16.35;77.63
8501;BME280;4288;48.484;10.024;2022-11-18T09:07:36;94195.03;;;16.35;77.39
8501;BME280;4288;48.484;10.024;2022-11-18T09:10:05;94195.03;;;16.35;77.45
8501;BME280;4288;48.484;10.024;2022-11-18T09:12:32;94196.97;;;16.35;77.50
8501;BME280;4288;48.484;10.024;2022-11-18T09:14:59;94193.06;;;16.36;77.63
8501;BME280;4288;48.484;10.024;2022-11-18T09:17:27;94201.16;;;16.36;77.61
8501;BME280;4288;48.484;10.024;2022-11-18T09:19:55;94203.09;;;16.35;77.43
8501;BME280;4288;48.484;10.024;2022-11-18T09:22:22;94211.94;;;16.36;77.50
8501;BME280;4288;48.484;10.024;2022-11-18T09:24:50;94210.44;;;16.35;77.34
8501;BME280;4288;48.484;10.024;2022-11-18T09:27:17;94213.88;;;16.35;77.28
8501;BME280;4288;48.484;10.024;2022-11-18T09:29:44;94215.81;;;16.35;77.33
8501;BME280;4288;48.484;10.024;2022-11-18T09:32:12;94218.09;;;16.36;77.38
8501;BME280;4288;48.484;10.024;2022-11-18T09:34:39;94211.94;;;16.36;77.29
8501;BME280;4288;48.484;10.024;2022-11-18T09:37:08;94217.34;;;16.36;77.28
8501;BME280;4288;48.484;10.024;2022-11-18T09:39:35;94218.53;;;16.35;77.46
8501;BME280;4288;48.484;10.024;2022-11-18T09:42:23;94222.28;;;16.37;77.40
8501;BME280;4288;48.484;10.024;2022-11-18T09:45:06;94235.75;;;16.37;77.34
8501;BME280;4288;48.484;10.024;2022-11-18T09:47:37;94237.72;;;16.37;77.43
8501;BME280;4288;48.484;10.024;2022-11-18T09:50:08;94237.72;;;16.37;77.33
8501;BME280;4288;48.484;10.024;2022-11-18T09:52:46;94251.19;;;16.37;77.27
8501;BME280;4288;48.484;10.024;2022-11-18T09:55:18;94244.75;;;16.34;77.16
8501;BME280;4288;48.484;10.024;2022-11-18T09:57:48;94254.34;;;16.35;77.24
8501;BME280;4288;48.484;10.024;2022-11-18T10:00:18;94258.97;;;16.35;77.27
8501;BME280;4288;48.484;10.024;2022-11-18T10:02:54;94256.16;;;16.38;77.40
8501;BME280;4288;48.484;10.024;2022-11-18T10:05:26;94260.19;;;16.34;77.59
8501;BME280;4288;48.484;10.024;2022-11-18T10:08:10;94260.03;;;16.37;77.53
8501;BME280;4288;48.484;10.024;2022-11-18T10:10:49;94264.25;;;16.38;77.34
8501;BME280;4288;48.484;10.024;2022-11-18T10:13:31;94266.19;;;16.38;77.38
8501;BME280;4288;48.484;10.024;2022-11-18T10:16:17;94257.78;;;16.36;77.35
8501;BME280;4288;48.484;10.024;2022-11-18T10:18:54;94263.50;;;16.38;77.54
8501;BME280;4288;48.484;10.024;2022-11-18T10:21:43;94262.28;;;16.39;77.57
8501;BME280;4288;48.484;10.024;2022-11-18T10:24:18;94258.84;;;16.38;77.54
8501;BME280;4288;48.484;10.024;2022-11-18T10:26:45;94263.78;;;16.40;77.54
8501;BME280;4288;48.484;10.024;2022-11-18T10:29:13;94261.09;;;16.40;77.59
8501;BME280;4288;48.484;10.024;2022-11-18T10:31:53;94259.16;;;16.40;77.51
8501;BME280;4288;48.484;10.024;2022-11-18T10:34:22;94259.88;;;16.41;77.72
8501;BME280;4288;48.484;10.024;2022-11-18T10:36:59;94266.94;;;16.38;77.80
8501;BME280;4288;48.484;10.024;2022-11-18T10:39:28;94271.44;;;16.41;77.57
8501;BME280;4288;48.484;10.024;2022-11-18T10:42:00;94277.59;;;16.42;77.65
8501;BME280;4288;48.484;10.024;2022-11-18T10:44:35;94282.22;;;16.41;77.70
8501;BME280;4288;48.484;10.024;2022-11-18T10:47:31;94277.59;;;16.42;77.49
8501;BME280;4288;48.484;10.024;2022-11-18T10:50:00;94274.56;;;16.40;77.95
8501;BME280;4288;48.484;10.024;2022-11-18T10:52:29;94264.66;;;16.37;77.72
8501;BME280;4288;48.484;10.024;2022-11-18T10:55:22;94278.31;;;16.42;77.62
8501;BME280;4288;48.484;10.024;2022-11-18T10:57:53;94270.97;;;16.43;77.74
8501;BME280;4288;48.484;10.024;2022-11-18T11:00:42;94271.44;;;16.41;77.58
8501;BME280;4288;48.484;10.024;2022-11-18T11:03:31;94277.59;;;16.42;77.65
8501;BME280;4288;48.484;10.024;2022-11-18T11:06:30;94276.53;;;16.39;77.82
8501;BME280;4288;48.484;10.024;2022-11-18T11:09:01;94278.75;;;16.41;77.53
8501;BME280;4288;48.484;10.024;2022-11-18T11:11:33;94281.75;;;16.43;77.51
8501;BME280;4288;48.484;10.024;2022-11-18T11:14:11;94289.84;;;16.43;77.77
8501;BME280;4288;48.484;10.024;2022-11-18T11:16:47;94288.06;;;16.40;77.45
8501;BME280;4288;48.484;10.024;2022-11-18T11:19:22;94289.84;;;16.43;77.65
8501;BME280;4288;48.484;10.024;2022-11-18T11:21:51;94282.53;;;16.43;77.54
8501;BME280;4288;48.484;10.024;2022-11-18T11:24:19;94287.59;;;16.41;77.73
8501;BME280;4288;48.484;10.024;2022-11-18T11:26:59;94289.84;;;16.43;77.43
8501;BME280;4288;48.484;10.024;2022-11-18T11:30:12;94292.56;;;16.43;77.64
8501;BME280;4288;48.484;10.024;2022-11-18T11:33:15;94302.16;;;16.44;77.46
8501;BME280;4288;48.484;10.024;2022-11-18T11:36:03;94294.50;;;16.42;77.72
8501;BME280;4288;48.484;10.024;2022-11-18T11:38:46;94293.75;;;16.42;77.40
8501;BME280;4288;48.484;10.024;2022-11-18T11:41:21;94292.56;;;16.43;77.60
8501;BME280;4288;48.484;10.024;2022-11-18T11:44:17;94288.38;;;16.42;77.63
8501;BME280;4288;48.484;10.024;2022-11-18T11:47:00;94288.81;;;16.40;77.64
8501;BME280;4288;48.484;10.024;2022-11-18T11:49:52;94289.09;;;16.42;77.55
8501;BME280;4288;48.484;10.024;2022-11-18T11:52:36;94286.41;;;16.42;77.77
8501;BME280;4288;48.484;10.024;2022-11-18T11:55:20;94287.16;;;16.43;77.33
8501;BME280;4288;48.484;10.024;2022-11-18T11:58:09;94294.06;;;16.44;77.64
8501;BME280;4288;48.484;10.024;2022-11-18T12:00:48;94284.47;;;16.43;77.36
8501;BME280;4288;48.484;10.024;2022-11-18T12:03:41;94281.75;;;16.43;77.71
8501;BME280;4288;48.484;10.024;2022-11-18T12:06:10;94276.06;;;16.41;77.34
8501;BME280;4288;48.484;10.024;2022-11-18T12:08:54;94282.97;;;16.42;77.35
8501;BME280;4288;48.484;10.024;2022-11-18T12:11:31;94287.91;;;16.43;77.30
8501;BME280;4288;48.484;10.024;2022-11-18T12:14:03;94287.16;;;16.43;77.44
8501;BME280;4288;48.484;10.024;2022-11-18T12:16:42;94289.56;;;16.41;77.62
8501;BME280;4288;48.484;10.024;2022-11-18T12:19:12;94288.81;;;16.40;77.47
8501;BME280;4288;48.484;10.024;2022-11-18T12:21:57;94297.94;;;16.43;77.47
8501;BME280;4288;48.484;10.024;2022-11-18T12:24:34;94299.47;;;16.44;77.25
8501;BME280;4288;48.484;10.024;2022-11-18T12:27:10;94298.41;;;16.41;77.39
8501;BME280;4288;48.484;10.024;2022-11-18T12:29:52;94293.75;;;16.42;77.38
8501;BME280;4288;48.484;10.024;2022-11-18T12:32:42;94301.41;;;16.43;77.43
8501;BME280;4288;48.484;10.024;2022-11-18T12:35:24;94300.63;;;16.43;77.09
8501;BME280;4288;48.484;10.024;2022-11-18T12:38:01;94303.03;;;16.41;77.23
8501;BME280;4288;48.484;10.024;2022-11-18T12:40:41;94308.44;;;16.41;77.28
8501;BME280;4288;48.484;10.024;2022-11-18T12:46:56;94324.91;;;16.43;77.13
8501;BME280;4288;48.484;10.024;2022-11-18T12:50:11;94329.53;;;16.42;77.35
8501;BME280;4288;48.484;10.024;2022-11-18T12:52:53;94328.81;;;16.42;77.34
8501;BME280;4288;48.484;10.024;2022-11-18T12:55:25;94336.16;;;16.41;77.18
8501;BME280;4288;48.484;10.024;2022-11-18T12:57:56;94345.00;;;16.42;77.47
8501;BME280;4288;48.484;10.024;2022-11-18T13:00:33;94335.41;;;16.41;77.29
8501;BME280;4288;48.484;10.024;2022-11-18T13:03:30;94335.41;;;16.41;77.13
8501;BME280;4288;48.484;10.024;2022-11-18T13:06:06;94334.94;;;16.42;77.20
8501;BME280;4288;48.484;10.024;2022-11-18T13:08:39;94333.00;;;16.43;77.07
8501;BME280;4288;48.484;10.024;2022-11-18T13:11:13;94331.50;;;16.42;77.16
8501;BME280;4288;48.484;10.024;2022-11-18T13:13:58;94340.34;;;16.42;77.09
8501;BME280;4288;48.484;10.024;2022-11-18T13:16:44;94333.00;;;16.43;77.02
8501;BME280;4288;48.484;10.024;2022-11-18T13:19:29;94331.50;;;16.42;76.99
8501;BME280;4288;48.484;10.024;2022-11-18T13:21:59;94341.53;;;16.41;76.86
8501;BME280;4288;48.484;10.024;2022-11-18T13:24:46;94329.28;;;16.40;77.01
8501;BME280;4288;48.484;10.024;2022-11-18T13:27:26;94333.91;;;16.40;77.17
8501;BME280;4288;48.484;10.024;2022-11-18T13:30:03;94336.47;;;16.43;76.97
8501;BME280;4288;48.484;10.024;2022-11-18T13:32:31;94339.91;;;16.44;77.14
8501;BME280;4288;48.484;10.024;2022-11-18T13:35:11;94337.63;;;16.42;77.09
8501;BME280;4288;48.484;10.024;2022-11-18T13:37:50;94341.84;;;16.43;77.04
8501;BME280;4288;48.484;10.024;2022-11-18T13:40:24;94337.22;;;16.44;76.99
8501;BME280;4288;48.484;10.024;2022-11-18T13:42:52;94338.41;;;16.43;77.13
8501;BME280;4288;48.484;10.024;2022-11-18T13:45:22;94344.56;;;16.43;77.12